Time;durP1;ratioP1;P1;durP2;ratioP2;P2;SDS_P1;SDS_P2;PMS_P1;PMS_P2;Temp;Humidity;BMP_temperature;BMP_pressure;BME280_temperature;BME280_humidity;BME280_pressure;Samples;Min_cycle;Max_cycle;Signal;HPM_P1;HPM_P2
2021/01/28 00:01:11;;;;;;;24.83;13.90;;;;;;;0.48;91.91;98817.25;5093051;28;20040;-86
2021/01/28 00:03:38;;;;;;;24.33;13.63;;;;;;;0.48;92.51;98817.25;5092470;28;20059;-86
2021/01/28 00:06:04;;;;;;;24.00;13.63;;;;;;;0.33;91.97;98786.44;5098365;28;20051;-87
2021/01/28 00:08:31;;;;;;;25.53;12.97;;;;;;;0.22;92.13;98787.34;5107575;28;20514;-87
2021/01/28 00:10:59;;;;;;;23.97;13.17;;;;;;;0.31;92.38;98799.09;5101644;28;20055;-87
2021/01/28 00:13:26;;;;;;;26.37;13.73;;;;;;;0.37;92.53;98798.59;5093008;28;20539;-87
2021/01/28 00:15:52;;;;;;;22.90;13.43;;;;;;;0.28;92.19;98799.34;5111255;28;20043;-87
2021/01/28 00:18:19;;;;;;;27.33;13.93;;;;;;;0.26;92.16;98795.97;5101780;28;20071;-87
2021/01/28 00:31:51;;;;;;;22.03;11.43;;;;;;;0.47;92.86;98801.34;4962799;28;20054;-86
2021/01/28 00:34:49;;;;;;;;;;;;;;;;;;;;;
2021/01/28 00:40:35;;;;;;;25.63;14.70;;;;;;;0.40;92.12;98800.16;4970389;28;20058;-87
2021/01/28 00:44:11;;;;;;;39.67;18.80;;;;;;;0.45;91.93;98798.81;4978748;28;20093;-86
2021/01/28 00:52:35;;;;;;;42.63;20.23;;;;;;;0.39;92.43;98761.84;5049608;28;20040;-86
2021/01/28 00:55:11;;;;;;;41.73;18.67;;;;;;;0.33;91.83;98752.53;5051993;28;20053;-87
2021/01/28 00:57:40;;;;;;;37.27;16.97;;;;;;;0.33;91.98;98765.03;5071398;28;20051;-87
2021/01/28 01:00:56;;;;;;;35.40;17.40;;;;;;;0.51;92.37;98768.84;5112523;28;20044;-87
2021/01/28 01:03:57;;;;;;;39.60;18.63;;;;;;;0.48;91.94;98770.94;5112803;28;20054;-85
2021/01/28 01:07:17;;;;;;;38.87;18.27;;;;;;;0.24;91.53;98725.72;5106776;28;20403;-87
2021/01/28 01:13:35;;;;;;;41.70;20.73;;;;;;;0.26;92.67;98769.25;5021373;28;20048;-87
2021/01/28 01:16:36;;;;;;;49.20;22.80;;;;;;;0.33;92.39;98767.72;5036278;28;20053;-86
2021/01/28 01:19:22;;;;;;;41.90;20.70;;;;;;;0.40;92.62;98754.69;5096401;28;20056;-86
2021/01/28 01:25:37;;;;;;;39.00;18.47;;;;;;;0.48;92.24;98768.25;5015537;28;20084;-87
2021/01/28 01:28:45;;;;;;;39.33;18.90;;;;;;;0.48;92.42;98761.09;5078645;28;20101;-86
2021/01/28 01:31:51;;;;;;;35.43;17.17;;;;;;;0.48;92.97;98763.78;5109822;27;20047;-87
2021/01/28 01:34:18;;;;;;;38.43;17.53;;;;;;;0.40;93.21;98733.31;5033581;28;20059;-86
2021/01/28 01:36:46;;;;;;;38.97;17.37;;;;;;;0.58;92.23;98757.63;5095452;28;20052;-87
2021/01/28 01:39:14;;;;;;;34.20;16.43;;;;;;;0.41;92.74;98722.47;5103231;28;20138;-85
2021/01/28 01:41:41;;;;;;;36.33;18.13;;;;;;;0.37;92.18;98710.34;5115174;28;20055;-84
2021/01/28 01:44:09;;;;;;;31.10;16.63;;;;;;;0.55;92.21;98728.47;5102202;28;20060;-83
2021/01/28 01:46:36;;;;;;;36.43;17.40;;;;;;;0.58;92.08;98726.38;5113526;28;20062;-84
2021/01/28 01:49:06;;;;;;;39.47;16.80;;;;;;;0.60;91.71;98720.88;5112967;28;20105;-84
2021/01/28 01:51:35;;;;;;;;;;;;;;;0.53;92.70;98729.44;5105416;28;20082;-84
2021/01/28 01:54:11;;;;;;;33.25;15.60;;;;;;;0.53;92.60;98723.25;5094442;28;19981;-86
2021/01/28 01:56:42;;;;;;;38.63;15.03;;;;;;;0.43;92.03;98703.63;5104870;28;20050;-86
2021/01/28 01:59:12;;;;;;;29.10;15.33;;;;;;;0.38;92.29;98700.47;5114376;28;20071;-86
2021/01/28 02:01:47;;;;;;;30.98;15.05;;;;;;;0.43;92.33;98709.81;5093801;28;20082;-86
2021/01/28 02:04:16;;;;;;;30.37;14.27;;;;;;;0.48;92.65;98712.09;5110155;28;20101;-86
2021/01/28 02:06:46;;;;;;;30.57;14.27;;;;;;;0.49;92.36;98693.22;5103967;28;20138;-86
2021/01/28 02:09:16;;;;;;;29.40;13.87;;;;;;;0.50;92.17;98699.44;5093616;28;20059;-87
2021/01/28 02:11:43;;;;;;;;;;;;;;;0.47;92.66;98695.19;5099248;28;20104;-85
2021/01/28 02:14:12;;;;;;;25.73;12.00;;;;;;;0.26;92.50;98659.63;5110685;27;19927;-87
2021/01/28 02:16:48;;;;;;;23.20;12.07;;;;;;;0.21;92.71;98659.16;5104165;28;20411;-86
2021/01/28 02:19:31;;;;;;;21.60;10.77;;;;;;;0.37;92.99;98672.06;5111655;28;20063;-86
2021/01/28 02:22:00;;;;;;;17.73;10.10;;;;;;;0.28;93.52;98645.13;5098367;28;20111;-86
2021/01/28 02:24:48;;;;;;;19.98;10.88;;;;;;;0.38;92.64;98652.34;5096706;28;20059;-86
2021/01/28 02:27:17;;;;;;;19.63;11.20;;;;;;;0.48;92.26;98634.53;5091149;28;20048;-86
2021/01/28 02:29:46;;;;;;;22.13;12.47;;;;;;;0.60;91.92;98649.50;5094530;28;20056;-86
2021/01/28 02:32:12;;;;;;;25.10;12.60;;;;;;;0.68;91.92;98649.69;5107900;28;20075;-87
2021/01/28 02:34:41;;;;;;;21.50;11.50;;;;;;;0.64;91.82;98626.00;5113175;28;20354;-86
2021/01/28 02:37:14;;;;;;;21.10;11.57;;;;;;;0.69;91.97;98632.66;5113334;28;20062;-87
2021/01/28 02:39:45;;;;;;;21.77;11.23;;;;;;;0.61;91.95;98621.78;5114860;28;20051;-86
2021/01/28 02:42:19;;;;;;;21.50;10.87;;;;;;;0.64;91.79;98634.03;5109926;28;20485;-86
2021/01/28 02:44:48;;;;;;;22.73;11.20;;;;;;;0.58;91.81;98622.03;5106160;28;20044;-87
2021/01/28 02:47:16;;;;;;;20.23;10.80;;;;;;;0.79;91.96;98645.22;5095920;28;20464;-87
2021/01/28 02:49:43;;;;;;;22.20;11.17;;;;;;;0.75;92.02;98617.88;5102176;28;20143;-87
2021/01/28 02:52:09;;;;;;;23.70;11.33;;;;;;;0.74;91.87;98624.22;5098826;28;20139;-87
2021/01/28 02:54:43;;;;;;;23.73;11.73;;;;;;;0.79;92.00;98631.84;5107912;28;20105;-86
2021/01/28 02:57:10;;;;;;;20.97;11.63;;;;;;;0.86;91.77;98633.84;5094860;28;20143;-87
2021/01/28 02:59:38;;;;;;;21.07;11.50;;;;;;;0.85;91.76;98628.63;5113625;28;20054;-86
2021/01/28 03:02:06;;;;;;;22.77;12.17;;;;;;;0.81;91.18;98614.69;5114187;28;20075;-86
2021/01/28 03:04:33;;;;;;;25.53;12.03;;;;;;;0.76;91.77;98603.53;5102608;28;20077;-86
2021/01/28 03:07:02;;;;;;;20.33;10.77;;;;;;;0.80;91.76;98598.72;5107667;28;20488;-87
2021/01/28 03:09:29;;;;;;;24.73;12.20;;;;;;;0.84;91.55;98606.38;5113464;28;20177;-86
2021/01/28 03:11:57;;;;;;;26.10;12.17;;;;;;;0.83;91.51;98595.81;5113420;28;20055;-86
2021/01/28 03:14:23;;;;;;;24.93;11.20;;;;;;;0.78;91.43;98572.09;5102309;28;20395;-87
2021/01/28 03:16:53;;;;;;;23.10;10.47;;;;;;;0.86;91.64;98591.00;5105520;28;20113;-87
2021/01/28 03:19:20;;;;;;;20.35;10.07;;;;;;;0.86;91.87;98592.84;5104794;28;20557;-86
2021/01/28 03:21:49;;;;;;;21.27;10.80;;;;;;;0.88;91.53;98588.19;5103257;28;20093;-86
2021/01/28 03:24:17;;;;;;;23.63;11.47;;;;;;;0.70;91.57;98559.41;5106765;28;20067;-86
2021/01/28 03:26:44;;;;;;;21.90;10.93;;;;;;;0.92;91.44;98584.28;5109625;28;20055;-87
2021/01/28 03:29:12;;;;;;;18.73;9.37;;;;;;;0.87;91.28;98583.81;5108692;28;20044;-86
2021/01/28 03:31:41;;;;;;;18.93;10.47;;;;;;;0.82;91.42;98581.56;5106286;28;20051;-86
2021/01/28 03:34:09;;;;;;;21.53;11.10;;;;;;;0.75;91.97;98556.31;5104749;28;20507;-86
2021/01/28 03:36:38;;;;;;;18.00;9.97;;;;;;;0.88;91.29;98583.69;5101385;28;20096;-86
2021/01/28 03:39:06;;;;;;;18.92;9.00;;;;;;;0.84;91.74;98565.38;5112481;28;20048;-87
2021/01/28 03:41:33;;;;;;;17.73;9.77;;;;;;;0.85;91.68;98564.38;5105457;27;20498;-86
2021/01/28 03:43:59;;;;;;;15.50;8.73;;;;;;;0.91;91.83;98552.28;5098253;28;20098;-86
2021/01/28 03:46:26;;;;;;;16.37;8.17;;;;;;;0.76;91.84;98533.94;5099570;28;20044;-86
2021/01/28 03:48:53;;;;;;;17.30;8.23;;;;;;;0.95;91.70;98538.50;5109791;28;20055;-86
2021/01/28 03:51:23;;;;;;;18.17;8.33;;;;;;;0.93;91.41;98539.59;5112078;28;20043;-86
2021/01/28 03:53:49;;;;;;;;;;;;;;;0.92;91.58;98522.72;5108316;28;20112;-86
2021/01/28 03:56:15;;;;;;;14.83;8.00;;;;;;;0.87;91.38;98506.22;5112667;28;19920;-86
2021/01/28 03:58:42;;;;;;;15.40;8.33;;;;;;;0.78;91.27;98481.13;5110961;28;20063;-87
2021/01/28 04:01:09;;;;;;;17.03;8.93;;;;;;;0.86;91.45;98486.66;5112183;28;20298;-87
2021/01/28 04:03:38;;;;;;;15.23;8.53;;;;;;;0.72;92.02;98467.47;5112141;28;20051;-87
2021/01/28 04:06:07;;;;;;;19.40;9.50;;;;;;;0.86;91.70;98480.47;5096722;28;20055;-86
2021/01/28 04:08:37;;;;;;;16.33;8.50;;;;;;;0.82;91.61;98485.22;5096227;28;20241;-86
2021/01/28 04:11:03;;;;;;;16.50;7.63;;;;;;;0.74;92.23;98476.19;5108681;28;20063;-86
2021/01/28 04:13:30;;;;;;;14.77;8.40;;;;;;;0.79;92.03;98472.13;5093589;28;20130;-86
2021/01/28 04:15:56;;;;;;;13.90;7.30;;;;;;;0.87;91.61;98464.25;5101587;28;20047;-86
2021/01/28 04:18:22;;;;;;;11.77;6.80;;;;;;;0.87;91.97;98474.09;5112211;28;20047;-86
2021/01/28 04:20:50;;;;;;;13.77;7.20;;;;;;;0.64;92.25;98436.06;5111025;28;20588;-86
2021/01/28 04:23:17;;;;;;;12.73;6.07;;;;;;;0.92;92.12;98461.16;5109437;28;20048;-86
2021/01/28 04:25:45;;;;;;;9.07;5.67;;;;;;;0.93;92.26;98451.28;5098228;28;20052;-86
2021/01/28 04:28:12;;;;;;;9.10;5.77;;;;;;;0.86;92.03;98414.38;5109387;28;20043;-86
2021/01/28 04:30:38;;;;;;;9.37;5.47;;;;;;;0.94;92.03;98442.28;5112720;28;20384;-85
2021/01/28 04:33:06;;;;;;;11.50;6.63;;;;;;;0.81;92.10;98405.94;5104670;28;20053;-85
2021/01/28 04:35:33;;;;;;;9.65;5.72;;;;;;;0.91;91.84;98416.63;5112637;28;20066;-85
2021/01/28 04:37:59;;;;;;;14.83;6.77;;;;;;;0.88;91.60;98417.75;5116261;28;20108;-85
2021/01/28 04:40:34;;;;;;;11.77;5.90;;;;;;;1.05;91.45;98424.25;5116827;28;20055;-85
2021/01/28 04:43:07;;;;;;;11.23;6.07;;;;;;;0.99;91.87;98415.94;5109224;28;20055;-85
2021/01/28 04:45:34;;;;;;;10.83;6.03;;;;;;;0.91;91.66;98411.28;5115944;28;20051;-85
2021/01/28 04:48:05;;;;;;;11.97;6.57;;;;;;;0.94;91.59;98408.31;5103352;28;20113;-84
2021/01/28 04:50:37;;;;;;;15.73;7.13;;;;;;;1.05;91.23;98421.56;5109260;28;20446;-85
2021/01/28 04:53:09;;;;;;;12.27;6.67;;;;;;;0.96;91.20;98413.53;5114459;28;20403;-85
2021/01/28 04:55:41;;;;;;;9.57;5.50;;;;;;;0.81;91.93;98405.09;5115748;28;20104;-85
2021/01/28 04:58:09;;;;;;;10.33;6.63;;;;;;;0.92;91.81;98399.59;5113438;28;20046;-84
2021/01/28 05:00:39;;;;;;;13.60;6.60;;;;;;;0.97;91.75;98391.16;5098123;28;20388;-84
2021/01/28 05:03:15;;;;;;;9.40;5.75;;;;;;;0.97;92.24;98380.44;5100450;28;20120;-84
2021/01/28 05:05:42;;;;;;;12.60;7.10;;;;;;;1.04;91.44;98376.22;5105076;28;20492;-85
2021/01/28 05:08:08;;;;;;;15.00;7.37;;;;;;;1.06;91.54;98366.19;5115767;28;20044;-84
2021/01/28 05:10:46;;;;;;;13.52;7.20;;;;;;;1.04;91.31;98363.66;5116133;28;20059;-85
2021/01/28 05:13:25;;;;;;;8.80;6.00;;;;;;;1.03;91.12;98353.94;5115651;28;20096;-85
2021/01/28 05:15:52;;;;;;;12.05;6.45;;;;;;;1.09;91.11;98343.66;5113285;28;20149;-84
2021/01/28 05:18:28;;;;;;;10.70;6.50;;;;;;;1.00;91.66;98332.81;5108130;28;20063;-84
2021/01/28 05:21:10;;;;;;;12.97;6.37;;;;;;;1.02;91.22;98330.84;5113852;28;20036;-84
2021/01/28 05:23:43;;;;;;;11.77;6.27;;;;;;;0.93;90.90;98315.63;5107029;28;20048;-83
2021/01/28 05:26:29;;;;;;;11.30;6.53;;;;;;;1.15;90.95;98335.88;5112794;28;20101;-82
2021/01/28 05:29:15;;;;;;;11.30;6.40;;;;;;;1.11;91.21;98325.59;5107275;28;20066;-85
2021/01/28 05:31:42;;;;;;;9.90;5.50;;;;;;;1.13;91.75;98328.97;5099896;28;20050;-95
2021/01/28 05:34:11;;;;;;;11.17;5.93;;;;;;;1.00;91.56;98295.34;5102865;28;20079;-96
2021/01/28 05:36:44;;;;;;;10.73;6.32;;;;;;;1.01;91.83;98297.03;5099311;28;20466;-95
2021/01/28 05:39:28;;;;;;;10.40;6.13;;;;;;;0.99;91.41;98301.66;5099164;28;20056;-96
2021/01/28 05:42:23;;;;;;;13.32;5.60;;;;;;;1.05;91.92;98305.59;5098891;28;20044;-95
2021/01/28 05:44:52;;;;;;;12.17;6.23;;;;;;;1.09;91.43;98301.66;5099592;28;20130;-96
2021/01/28 05:47:33;;;;;;;10.90;5.70;;;;;;;1.13;91.84;98303.06;5099208;28;20052;-96
2021/01/28 05:50:18;;;;;;;11.82;6.20;;;;;;;1.15;91.98;98294.88;5102301;28;20072;-96
2021/01/28 05:52:48;;;;;;;10.83;6.63;;;;;;;1.19;91.94;98304.28;5103290;28;20111;-95
2021/01/28 05:55:23;;;;;;;13.33;6.17;;;;;;;1.17;91.75;98290.22;5106986;28;20056;-95
2021/01/28 05:58:07;;;;;;;9.00;5.43;;;;;;;1.16;92.25;98289.38;5106450;28;20389;-96
2021/01/28 06:00:48;;;;;;;8.57;5.15;;;;;;;1.21;91.87;98280.91;5106444;28;20052;-96
2021/01/28 06:04:03;;;;;;;11.70;6.37;;;;;;;1.42;91.71;98292.22;5112556;28;20074;-96
2021/01/28 06:14:15;;;;;;;9.23;6.10;;;;;;;1.13;92.19;98244.16;5081964;28;20046;-96
2021/01/28 06:16:59;;;;;;;9.47;5.73;;;;;;;1.23;91.65;98249.44;5094430;28;20056;-96
2021/01/28 06:20:03;;;;;;;9.17;5.33;;;;;;;1.33;91.63;98257.47;5101780;28;20070;-95
2021/01/28 06:22:43;;;;;;;13.50;6.23;;;;;;;1.19;91.99;98232.84;5099440;28;20071;-96
2021/01/28 06:25:43;;;;;;;12.40;5.78;;;;;;;1.15;91.61;98226.09;5098112;28;20054;-96
2021/01/28 06:28:44;;;;;;;8.03;5.40;;;;;;;1.16;92.01;98217.09;5098364;28;20058;-96
2021/01/28 06:31:28;;;;;;;11.10;5.63;;;;;;;1.21;91.56;98204.09;5096952;28;20055;-95
2021/01/28 06:34:33;;;;;;;10.33;5.30;;;;;;;1.33;91.82;98215.44;5096885;28;20454;-96
2021/01/28 06:37:28;;;;;;;8.77;5.60;;;;;;;1.38;92.18;98215.81;5079619;28;20411;-95
2021/01/28 06:47:29;;;;;;;11.53;5.73;;;;;;;1.32;92.04;98176.25;5071413;28;20056;-94
2021/01/28 06:50:08;;;;;;;9.77;6.10;;;;;;;1.31;92.46;98179.94;5096242;28;20105;-95
2021/01/28 06:53:12;;;;;;;11.33;5.93;;;;;;;1.38;92.01;98170.28;5095833;28;20097;-94
2021/01/28 06:56:01;;;;;;;11.53;5.93;;;;;;;1.36;92.40;98153.53;5096749;28;20051;-94
2021/01/28 06:58:50;;;;;;;12.90;7.47;;;;;;;1.41;92.37;98172.66;5096841;28;20548;-94
2021/01/28 07:01:22;;;;;;;13.53;6.67;;;;;;;1.49;92.37;98181.78;5095714;28;20047;-94
2021/01/28 07:04:06;;;;;;;11.33;6.60;;;;;;;1.34;92.26;98155.53;5096729;28;20388;-92
2021/01/28 07:06:45;;;;;;;15.67;7.93;;;;;;;1.36;92.61;98158.06;5096205;28;20056;-93
2021/01/28 07:09:27;;;;;;;14.90;7.47;;;;;;;1.26;92.60;98146.56;5096874;28;20063;-93
2021/01/28 07:17:56;;;;;;;16.00;6.40;;;;;;;1.29;92.94;98132.88;5090149;28;20071;-93
2021/01/28 07:20:33;;;;;;;14.73;7.57;;;;;;;1.48;92.86;98154.19;5095809;28;20071;-93
2021/01/28 07:23:28;;;;;;;14.07;6.57;;;;;;;1.38;93.32;98123.94;5095163;28;20051;-93
2021/01/28 07:26:25;;;;;;;10.97;5.83;;;;;;;1.27;93.20;98122.31;5095911;28;20402;-93
2021/01/28 07:28:53;;;;;;;14.50;6.40;;;;;;;1.36;93.35;98121.41;5096230;28;20048;-93
2021/01/28 07:34:27;;;;;;;16.63;6.90;;;;;;;1.44;93.04;98126.00;5094855;28;20091;-94
2021/01/28 07:36:59;;;;;;;13.20;7.93;;;;;;;1.33;93.18;98099.47;5096457;28;20185;-93
2021/01/28 07:39:47;;;;;;;13.20;7.63;;;;;;;1.42;93.87;98098.53;5095823;28;20139;-93
2021/01/28 07:42:29;;;;;;;11.87;6.83;;;;;;;1.42;93.48;98087.81;5095663;28;20186;-93
2021/01/28 07:46:03;;;;;;;11.53;6.43;;;;;;;1.37;93.50;98076.72;5103700;28;20047;-93
2021/01/28 07:49:14;;;;;;;12.03;6.20;;;;;;;1.62;93.04;98109.94;5115200;28;20146;-94
2021/01/28 09:56:59;;;;;;;8.95;4.80;;;;;;;2.46;93.21;97826.84;5057795;28;20103;-94
2021/01/28 10:00:01;;;;;;;9.68;4.70;;;;;;;2.55;93.19;97832.22;5060016;28;20059;-94
2021/01/28 10:05:55;;;;;;;11.48;4.55;;;;;;;2.54;93.53;97822.50;5030624;28;20056;-94
2021/01/28 10:28:57;;;;;;;6.43;3.75;;;;;;;2.96;93.98;97851.00;5030143;28;20048;-94
2021/01/28 10:49:16;;;;;;;5.57;2.17;;;;;;;3.04;94.62;97820.63;5102940;28;20106;-94
2021/01/28 10:51:55;;;;;;;3.45;2.60;;;;;;;2.94;94.52;97772.50;5078494;28;20052;-93
2021/01/28 10:54:27;;;;;;;6.53;2.35;;;;;;;2.98;94.47;97766.63;5097934;28;20044;-92
2021/01/28 11:00:17;;;;;;;3.80;2.58;;;;;;;3.30;94.30;97758.66;5107343;28;20045;-91
2021/01/28 11:19:36;;;;;;;5.07;2.22;;;;;;;3.65;94.23;97700.03;5089368;28;20127;-89
2021/01/28 11:22:10;;;;;;;3.63;2.30;;;;;;;3.67;94.02;97668.44;5094433;28;20096;-89
2021/01/28 11:24:40;;;;;;;5.50;2.60;;;;;;;3.62;94.21;97692.34;5093931;28;20072;-89
2021/01/28 11:27:08;;;;;;;4.47;2.65;;;;;;;3.70;94.38;97682.38;5094653;28;20462;-92
2021/01/28 11:29:37;;;;;;;3.75;2.42;;;;;;;3.71;94.59;97702.84;5088657;28;20079;-91
2021/01/28 11:32:06;;;;;;;3.63;2.30;;;;;;;3.80;94.61;97692.88;5077599;28;20064;-92
2021/01/28 11:34:34;;;;;;;5.07;2.35;;;;;;;3.92;94.39;97676.38;5083799;28;20535;-90
2021/01/28 11:37:03;;;;;;;4.57;2.55;;;;;;;3.86;94.46;97667.16;5089046;28;20060;-91
2021/01/28 11:39:39;;;;;;;4.63;2.40;;;;;;;3.90;94.70;97682.75;5091067;28;20102;-91
2021/01/28 11:42:09;;;;;;;5.90;2.30;;;;;;;3.95;94.77;97682.22;5093817;28;20135;-91
2021/01/28 11:44:35;;;;;;;3.15;2.08;;;;;;;3.86;94.83;97675.22;5093067;28;20056;-89
2021/01/28 11:47:02;;;;;;;2.97;2.10;;;;;;;3.93;95.35;97664.56;5094001;28;20055;-89
2021/01/28 11:49:31;;;;;;;2.97;2.13;;;;;;;4.05;95.29;97647.00;5083999;28;20109;-89
2021/01/28 11:51:59;;;;;;;5.00;2.78;;;;;;;4.43;94.80;97668.53;5088561;28;20462;-89
2021/01/28 11:54:27;;;;;;;4.65;2.35;;;;;;;4.48;94.24;97662.63;5088987;28;20056;-89
2021/01/28 11:56:54;;;;;;;2.72;2.22;;;;;;;4.58;94.19;97655.94;5092082;28;20062;-90
2021/01/28 11:59:20;;;;;;;3.90;2.25;;;;;;;4.65;93.92;97650.63;5088876;28;20053;-91
2021/01/28 12:01:47;;;;;;;4.32;2.50;;;;;;;4.57;94.22;97635.41;5089178;28;20464;-89
2021/01/28 12:04:14;;;;;;;3.38;1.70;;;;;;;4.49;93.93;97632.00;5087837;28;20557;-89
2021/01/28 12:06:43;;;;;;;2.60;1.70;;;;;;;4.43;93.95;97636.25;5089480;28;20066;-89
2021/01/28 12:09:11;;;;;;;2.92;1.58;;;;;;;4.44;94.23;97632.53;5088620;28;20052;-89
2021/01/28 12:11:38;;;;;;;4.82;1.65;;;;;;;4.41;94.47;97628.38;5089536;28;20139;-91
2021/01/28 12:14:04;;;;;;;2.60;1.75;;;;;;;4.40;94.58;97617.78;5089080;28;20413;-88
2021/01/28 12:16:31;;;;;;;2.42;1.50;;;;;;;4.45;94.38;97625.31;5085311;28;20473;-90
2021/01/28 12:18:58;;;;;;;5.85;2.33;;;;;;;4.36;94.63;97617.28;5091431;28;20052;-90
2021/01/28 12:21:25;;;;;;;3.45;1.98;;;;;;;4.52;94.81;97627.06;5091133;28;20105;-90
2021/01/28 12:23:52;;;;;;;4.53;1.50;;;;;;;4.53;94.91;97606.38;5081951;28;20511;-88
2021/01/28 12:26:20;;;;;;;6.45;1.40;;;;;;;4.67;94.79;97610.94;5085375;28;20086;-89
2021/01/28 12:28:47;;;;;;;3.03;1.35;;;;;;;4.71;94.56;97604.16;5093091;28;20079;-89
2021/01/28 12:31:13;;;;;;;2.35;1.45;;;;;;;4.69;94.54;97589.22;5085027;28;20071;-88
2021/01/28 12:33:40;;;;;;;3.40;1.48;;;;;;;4.84;94.71;97611.56;5092736;28;20124;-87
2021/01/28 12:36:07;;;;;;;2.78;1.70;;;;;;;4.76;94.70;97584.75;5080078;28;20122;-88
2021/01/28 12:38:49;;;;;;;2.33;1.80;;;;;;;4.74;94.89;97579.56;5076126;28;20052;-90
2021/01/28 12:41:20;;;;;;;2.88;1.65;;;;;;;4.87;94.76;97588.84;5081983;28;20457;-88
2021/01/28 12:43:48;;;;;;;1.75;1.40;;;;;;;4.82;94.83;97589.41;5075760;28;20400;-90
2021/01/28 12:46:15;;;;;;;4.10;1.45;;;;;;;4.89;94.74;97600.25;5091507;28;20139;-88
2021/01/28 12:48:41;;;;;;;3.20;1.55;;;;;;;4.86;94.86;97585.28;5092157;28;20048;-90
2021/01/28 12:51:10;;;;;;;3.10;1.42;;;;;;;4.93;94.85;97580.00;5083929;28;20050;-88
2021/01/28 12:53:37;;;;;;;1.42;1.27;;;;;;;5.11;94.64;97593.06;5086660;28;20064;-88
2021/01/28 12:56:04;;;;;;;5.80;1.65;;;;;;;5.03;94.61;97568.91;5074351;28;20059;-86
2021/01/28 12:58:32;;;;;;;2.83;1.75;;;;;;;5.12;94.64;97584.81;5088965;28;20043;-88
2021/01/28 13:01:01;;;;;;;2.67;1.95;;;;;;;5.09;94.84;97595.13;5076900;28;20606;-89
2021/01/28 13:03:27;;;;;;;2.97;1.75;;;;;;;5.04;94.82;97568.72;5087262;28;20161;-81
2021/01/28 13:06:18;;;;;;;3.67;1.65;;;;;;;5.17;95.24;97576.16;5090207;28;20488;-89
2021/01/28 13:08:45;;;;;;;4.53;1.80;;;;;;;5.05;95.19;97556.13;5097271;28;20048;-88
2021/01/28 13:11:17;;;;;;;6.13;2.97;;;;;;;5.12;95.33;97552.47;5091364;28;20050;-88
2021/01/28 13:13:44;;;;;;;2.53;2.05;;;;;;;5.21;95.50;97546.97;5088575;28;20399;-89
2021/01/28 13:16:20;;;;;;;3.08;1.45;;;;;;;5.47;96.01;97570.69;5086178;28;20052;-89
2021/01/28 13:18:58;;;;;;;3.22;1.70;;;;;;;5.59;96.35;97552.13;5095616;28;20044;-89
2021/01/28 13:21:29;;;;;;;2.67;1.65;;;;;;;5.67;96.59;97538.50;5097484;28;20044;-90
2021/01/28 13:23:56;;;;;;;2.17;1.60;;;;;;;5.81;96.23;97551.09;5092773;28;20503;-89
2021/01/28 13:26:22;;;;;;;4.85;1.50;;;;;;;5.93;96.41;97562.19;5096970;28;20059;-89
2021/01/28 13:28:50;;;;;;;4.00;2.00;;;;;;;5.89;96.47;97550.13;5097304;28;20064;-90
2021/01/28 13:31:16;;;;;;;2.08;1.58;;;;;;;5.91;96.72;97555.31;5096981;28;20051;-89
2021/01/28 13:33:43;;;;;;;4.47;1.98;;;;;;;6.05;96.75;97575.19;5097316;28;20075;-84
2021/01/28 13:36:10;;;;;;;5.63;2.03;;;;;;;6.15;96.77;97578.38;5097003;28;20052;-84
2021/01/28 13:38:37;;;;;;;10.52;2.30;;;;;;;6.16;96.61;97553.06;5095558;28;20385;-83
2021/01/28 13:41:05;;;;;;;3.88;1.85;;;;;;;6.59;96.57;97566.41;5083211;28;20056;-85
2021/01/28 13:43:32;;;;;;;3.67;1.92;;;;;;;6.66;96.63;97548.41;5094919;28;20059;-85
2021/01/28 13:45:59;;;;;;;2.83;0.80;;;;;;;7.21;96.23;97582.72;5096503;28;20056;-84
2021/01/28 13:51:34;;;;;;;0.95;0.57;;;;;;;8.01;94.18;97558.56;5091435;28;20496;-80
2021/01/28 13:54:00;;;;;;;1.05;0.80;;;;;;;8.10;93.54;97573.56;5085596;28;20051;-82
2021/01/28 13:56:27;;;;;;;0.85;0.43;;;;;;;8.11;93.43;97550.88;5095362;28;20416;-82
2021/01/28 13:58:53;;;;;;;0.55;0.52;;;;;;;8.28;92.77;97542.28;5095176;28;20064;-82
2021/01/28 14:01:20;;;;;;;3.05;1.10;;;;;;;8.45;92.75;97567.09;5095842;28;20056;-83
2021/01/28 14:03:47;;;;;;;1.40;0.70;;;;;;;8.52;91.87;97550.84;5094423;28;20056;-82
2021/01/28 14:06:13;;;;;;;2.90;1.33;;;;;;;8.67;91.66;97559.53;5095477;28;20059;-82
2021/01/28 14:08:40;;;;;;;2.45;1.33;;;;;;;8.84;91.70;97568.88;5094521;28;20040;-82
2021/01/28 14:11:06;;;;;;;0.95;0.60;;;;;;;8.97;90.62;97545.50;5094434;28;20054;-82
2021/01/28 14:13:32;;;;;;;2.97;1.02;;;;;;;9.10;90.21;97559.00;5095638;28;20052;-83
2021/01/28 14:15:59;;;;;;;1.73;1.08;;;;;;;9.06;90.54;97565.88;5094653;28;20048;-82
2021/01/28 14:18:26;;;;;;;1.73;1.40;;;;;;;9.12;90.17;97551.50;5095759;28;20052;-80
2021/01/28 14:20:53;;;;;;;1.02;0.65;;;;;;;9.15;89.72;97556.50;5095042;28;20125;-82
2021/01/28 14:23:29;;;;;;;0.50;0.50;;;;;;;9.16;90.24;97560.03;5094533;28;20564;-83
2021/01/28 14:25:55;;;;;;;0.70;0.70;;;;;;;9.17;89.85;97548.97;5085291;28;20048;-83
2021/01/28 14:28:21;;;;;;;0.57;0.35;;;;;;;9.34;89.67;97565.56;5094786;28;20483;-81
2021/01/28 14:30:48;;;;;;;1.45;0.40;;;;;;;9.39;89.23;97568.47;5094734;28;20048;-81
2021/01/28 14:33:14;;;;;;;0.30;0.30;;;;;;;9.44;89.30;97569.69;5089777;28;20196;-84
2021/01/28 14:35:42;;;;;;;0.60;0.50;;;;;;;9.47;89.32;97563.81;5093518;28;20060;-81
2021/01/28 14:38:09;;;;;;;1.88;1.17;;;;;;;9.48;88.96;97552.75;5091293;28;20044;-82
2021/01/28 14:40:36;;;;;;;0.77;0.50;;;;;;;9.37;89.33;97542.63;5092788;28;20198;-82
2021/01/28 14:43:02;;;;;;;0.50;0.32;;;;;;;9.61;88.48;97565.44;5093412;28;20043;-81
2021/01/28 14:45:28;;;;;;;0.20;0.20;;;;;;;9.56;88.99;97562.56;5074411;28;20057;-83
2021/01/28 14:47:55;;;;;;;0.68;0.30;;;;;;;9.46;88.54;97549.44;5087099;28;20043;-81
2021/01/28 14:50:21;;;;;;;0.77;0.50;;;;;;;9.60;88.48;97565.66;5093774;28;20058;-81
2021/01/28 14:52:49;;;;;;;0.30;0.30;;;;;;;9.44;88.69;97540.69;5094827;28;20051;-82
2021/01/28 14:55:16;;;;;;;0.32;0.32;;;;;;;9.57;89.04;97577.75;5093829;28;20047;-82
2021/01/28 14:57:43;;;;;;;0.30;0.30;;;;;;;9.48;88.94;97574.47;5079258;28;20060;-82
2021/01/28 15:00:12;;;;;;;0.68;0.30;;;;;;;9.68;88.53;97584.38;5094575;28;20058;-82
2021/01/28 15:02:39;;;;;;;0.30;0.30;;;;;;;9.70;88.00;97576.88;5093887;28;20091;-82
2021/01/28 15:05:06;;;;;;;0.52;0.30;;;;;;;9.68;88.28;97581.66;5089611;28;20044;-81
2021/01/28 15:07:32;;;;;;;2.65;0.50;;;;;;;9.76;88.34;97597.69;5087393;28;20105;-82
2021/01/28 15:10:00;;;;;;;0.60;0.60;;;;;;;9.60;88.51;97580.03;5094595;28;20598;-83
2021/01/28 15:12:26;;;;;;;0.30;0.30;;;;;;;9.67;88.50;97599.81;5093937;28;20052;-82
2021/01/28 15:14:53;;;;;;;3.00;0.35;;;;;;;9.69;88.62;97611.28;5094270;28;20056;-83
2021/01/28 15:17:21;;;;;;;0.43;0.43;;;;;;;9.60;88.81;97625.34;5094224;28;20101;-84
2021/01/28 15:19:48;;;;;;;2.05;0.80;;;;;;;9.74;87.50;97597.09;5092774;28;20120;-81
2021/01/28 15:22:14;;;;;;;0.38;0.38;;;;;;;9.79;87.34;97599.97;5080892;28;20049;-81
2021/01/28 15:24:41;;;;;;;2.58;0.40;;;;;;;9.81;87.22;97599.75;5076231;28;20051;-81
2021/01/28 15:27:09;;;;;;;2.05;0.93;;;;;;;9.76;87.06;97602.31;5094461;28;20052;-82
2021/01/28 15:29:35;;;;;;;0.40;0.35;;;;;;;9.73;86.34;97579.13;5093734;28;20044;-83
2021/01/28 15:32:02;;;;;;;0.60;0.57;;;;;;;9.75;86.11;97577.03;5094198;28;20051;-82
2021/01/28 15:34:29;;;;;;;0.60;0.40;;;;;;;9.91;85.36;97600.09;5093835;28;20068;-82
2021/01/28 15:36:56;;;;;;;1.17;0.38;;;;;;;9.81;85.68;97600.56;5093404;28;20052;-81
2021/01/28 15:39:22;;;;;;;1.92;0.68;;;;;;;9.88;85.16;97592.41;5093933;28;20044;-82
2021/01/28 15:41:48;;;;;;;1.67;0.85;;;;;;;9.80;85.54;97585.38;5093485;28;20768;-82
2021/01/28 15:44:16;;;;;;;0.73;0.55;;;;;;;9.74;85.43;97591.66;5092438;28;20044;-83
2021/01/28 15:46:42;;;;;;;0.88;0.70;;;;;;;9.84;85.67;97607.47;5093881;28;20044;-83
2021/01/28 15:49:09;;;;;;;0.40;0.40;;;;;;;9.73;86.05;97611.69;5093358;28;20066;-83
2021/01/28 15:51:35;;;;;;;0.32;0.32;;;;;;;9.70;86.19;97602.09;5088785;28;20060;-84
2021/01/28 15:54:13;;;;;;;0.22;0.20;;;;;;;9.85;85.97;97644.41;5090079;28;20056;-83
2021/01/28 15:56:39;;;;;;;0.43;0.43;;;;;;;9.85;86.13;97642.53;5093165;28;20067;-81
2021/01/28 15:59:07;;;;;;;1.60;0.70;;;;;;;9.87;86.13;97643.13;5090404;28;20040;-82
2021/01/28 16:01:34;;;;;;;0.30;0.30;;;;;;;9.80;86.03;97631.50;5084370;28;20143;-84
2021/01/28 16:04:02;;;;;;;0.90;0.30;;;;;;;9.78;85.38;97625.44;5080452;28;20052;-81